Time;durP1;ratioP1;P1;durP2;ratioP2;P2;SDS_P1;SDS_P2;PMS_P1;PMS_P2;Temp;Humidity;BMP_temperature;BMP_pressure;BME280_temperature;BME280_humidity;BME280_pressure;Samples;Min_cycle;Max_cycle;Signal;HPM_P1;HPM_P2
2022/11/06 00:01:29;;;;;;;51.83;30.85;;;;;;;7.92;100.00;98330.50;1718498;83;21437;-79
2022/11/06 00:03:55;;;;;;;55.38;35.90;;;;;;;7.95;100.00;98326.50;1718145;83;21015;-82
2022/11/06 00:09:09;;;;;;;65.97;41.88;;;;;;;7.99;100.00;98334.36;1716950;83;21002;-79
2022/11/06 00:11:35;;;;;;;;;;;;;;;7.99;100.00;98335.70;1714488;83;21022;-82
2022/11/06 00:14:01;;;;;;;58.15;40.00;;;;;;;7.97;100.00;98336.50;1711589;82;21037;-83
2022/11/06 00:16:26;;;;;;;57.13;32.20;;;;;;;7.93;100.00;98336.18;1711992;83;21712;-79
2022/11/06 00:18:53;;;;;;;46.18;26.25;;;;;;;7.88;100.00;98342.89;1691230;83;20903;-79
2022/11/06 00:21:23;;;;;;;39.60;23.77;;;;;;;7.83;100.00;98344.71;1712045;83;21462;-81
2022/11/06 00:23:50;;;;;;;42.35;25.40;;;;;;;7.89;100.00;98350.45;1711769;82;21009;-82
2022/11/06 00:26:20;;;;;;;85.12;59.40;;;;;;;7.88;100.00;98350.17;1712033;83;21064;-78
2022/11/06 00:28:46;;;;;;;43.92;30.05;;;;;;;7.87;100.00;98354.76;1711227;82;21482;-82
2022/11/06 00:31:16;;;;;;;60.38;35.52;;;;;;;7.81;100.00;98347.67;1712161;83;20907;-79
2022/11/06 00:33:41;;;;;;;42.55;27.32;;;;;;;7.74;100.00;98352.98;1713214;83;20983;-79
2022/11/06 00:36:10;;;;;;;63.25;44.23;;;;;;;7.68;100.00;98357.48;1718598;83;20956;-79
2022/11/06 00:38:36;;;;;;;80.40;54.67;;;;;;;7.71;100.00;98359.70;1718571;83;21053;-82
2022/11/06 00:41:04;;;;;;;67.45;41.60;;;;;;;7.69;100.00;98354.26;1718517;83;20849;-79
2022/11/06 00:43:29;;;;;;;62.13;40.83;;;;;;;7.68;100.00;98356.14;1718293;83;21432;-79
2022/11/06 00:46:06;;;;;;;79.32;51.20;;;;;;;7.68;100.00;98355.33;1718614;83;20880;-82
2022/11/06 00:48:33;;;;;;;86.08;57.58;;;;;;;7.71;100.00;98360.23;1717875;83;21009;-78
2022/11/06 00:51:19;;;;;;;67.42;41.37;;;;;;;7.74;100.00;98358.38;1718606;83;21504;-79
2022/11/06 00:53:45;;;;;;;65.12;41.77;;;;;;;7.72;100.00;98355.12;1717442;83;20988;-79
2022/11/06 00:56:16;;;;;;;53.65;30.70;;;;;;;7.73;100.00;98360.80;1718448;83;20980;-78
2022/11/06 00:58:42;;;;;;;53.25;37.23;;;;;;;7.74;100.00;98367.81;1718357;83;21064;-83
2022/11/06 01:01:11;;;;;;;92.27;71.35;;;;;;;7.75;100.00;98365.39;1718664;83;21000;-79
2022/11/06 01:03:38;;;;;;;61.15;47.33;;;;;;;7.71;100.00;98365.09;1718385;83;21116;-83
2022/11/06 01:06:13;;;;;;;51.73;28.83;;;;;;;7.71;100.00;98360.23;1718246;83;21007;-83
2022/11/06 01:08:39;;;;;;;55.43;35.23;;;;;;;7.71;100.00;98364.28;1718398;83;21056;-79
2022/11/06 01:11:15;;;;;;;55.88;34.80;;;;;;;7.71;100.00;98369.14;1718383;83;20916;-83
2022/11/06 01:13:41;;;;;;;65.05;40.60;;;;;;;7.71;100.00;98368.33;1718355;83;21059;-83
2022/11/06 01:16:09;;;;;;;56.70;35.85;;;;;;;7.69;100.00;98362.34;1718597;83;22281;-83
2022/11/06 01:18:36;;;;;;;76.55;49.93;;;;;;;7.68;100.00;98353.98;1718486;83;21063;-83
2022/11/06 01:21:08;;;;;;;56.00;36.17;;;;;;;7.55;100.00;98351.16;1690128;83;21456;-81
2022/11/06 01:23:34;;;;;;;51.10;29.50;;;;;;;7.62;100.00;98354.47;1718324;83;21060;-82
2022/11/06 01:26:04;;;;;;;70.12;37.83;;;;;;;7.60;100.00;98364.14;1711930;83;20918;-79
2022/11/06 01:28:30;;;;;;;74.95;42.67;;;;;;;7.60;100.00;98371.42;1711839;82;21083;-79
2022/11/06 01:30:55;;;;;;;77.35;48.15;;;;;;;7.59;100.00;98367.91;1712188;83;21660;-83
2022/11/06 01:33:22;;;;;;;66.47;42.80;;;;;;;7.61;100.00;98367.14;1713265;82;20915;-83
2022/11/06 01:35:49;;;;;;;61.33;41.85;;;;;;;7.59;100.00;98370.61;1694066;83;21034;-82
2022/11/06 01:38:15;;;;;;;67.00;39.58;;;;;;;7.57;100.00;98363.31;1711726;82;21529;-79
2022/11/06 01:40:43;;;;;;;95.70;63.68;;;;;;;7.58;100.00;98366.28;1711831;83;21169;-83
2022/11/06 01:43:16;;;;;;;72.65;45.15;;;;;;;7.58;100.00;98361.42;1711631;82;21046;-79
2022/11/06 01:45:45;;;;;;;51.65;31.17;;;;;;;7.55;100.00;98362.75;1712049;83;21494;-83
2022/11/06 01:48:11;;;;;;;96.32;59.60;;;;;;;7.53;100.00;98358.69;1711877;82;21025;-79
2022/11/06 01:50:37;;;;;;;66.53;39.85;;;;;;;7.55;100.00;98360.05;1711937;83;21053;-83
2022/11/06 01:53:03;;;;;;;49.73;30.15;;;;;;;7.56;100.00;98366.27;1711735;82;21004;-79
2022/11/06 01:55:36;;;;;;;46.63;27.77;;;;;;;7.55;100.00;98364.63;1711819;83;21466;-82
2022/11/06 01:58:03;;;;;;;65.12;41.88;;;;;;;7.54;100.00;98362.47;1711777;82;21082;-79
2022/11/06 02:00:31;;;;;;;91.32;58.83;;;;;;;7.55;100.00;98368.14;1711534;83;21073;-79
2022/11/06 02:02:57;;;;;;;79.62;46.88;;;;;;;7.55;100.00;98368.68;1711387;82;21449;-79
2022/11/06 02:05:23;;;;;;;64.12;42.10;;;;;;;7.54;100.00;98369.22;1711899;83;21073;-79
2022/11/06 02:07:50;;;;;;;71.53;49.35;;;;;;;7.54;100.00;98372.45;1711789;82;20954;-82
2022/11/06 02:10:16;;;;;;;75.28;51.10;;;;;;;7.56;100.00;98368.42;1691240;83;21049;-79
2022/11/06 02:13:12;;;;;;;72.55;42.45;;;;;;;7.58;100.00;98370.33;1711633;82;20977;-83
2022/11/06 02:16:01;;;;;;;54.05;32.33;;;;;;;7.58;100.00;98377.60;1711755;83;21046;-82
2022/11/06 02:19:08;;;;;;;57.23;38.17;;;;;;;7.57;100.00;98375.44;1686921;82;21873;-78
2022/11/06 02:21:55;;;;;;;67.53;38.23;;;;;;;7.58;100.00;98376.26;1710656;83;21485;-82
2022/11/06 02:24:26;;;;;;;56.40;31.20;;;;;;;7.58;100.00;98376.26;1710997;82;20993;-79
2022/11/06 02:27:13;;;;;;;86.72;61.53;;;;;;;7.59;100.00;98373.84;1711481;83;21355;-79
2022/11/06 02:30:09;;;;;;;67.17;35.15;;;;;;;7.57;100.00;98376.79;1711635;83;21384;-79
2022/11/06 02:32:49;;;;;;;44.05;24.85;;;;;;;7.54;100.00;98374.61;1713364;83;21142;-83
2022/11/06 02:35:29;;;;;;;100.02;70.25;;;;;;;7.54;100.00;98379.19;1716356;83;21008;-83
2022/11/06 02:38:02;;;;;;;64.10;41.08;;;;;;;7.52;100.00;98381.30;1718280;83;21016;-83
2022/11/06 02:40:32;;;;;;;69.90;45.58;;;;;;;7.54;100.00;98380.00;1718674;83;20968;-82
2022/11/06 02:42:59;;;;;;;66.33;38.83;;;;;;;7.57;100.00;98381.38;1718276;83;21055;-79
2022/11/06 02:45:25;;;;;;;67.42;40.17;;;;;;;7.54;100.00;98381.88;1718486;83;21132;-83
2022/11/06 02:47:53;;;;;;;72.20;47.03;;;;;;;7.54;100.00;98384.58;1718470;83;20983;-79
2022/11/06 02:50:29;;;;;;;57.00;35.20;;;;;;;7.52;100.00;98382.64;1718245;83;21058;-82
2022/11/06 02:53:00;;;;;;;70.72;44.33;;;;;;;7.50;100.00;98380.20;1718360;83;21059;-83
2022/11/06 02:55:43;;;;;;;61.90;34.50;;;;;;;7.55;100.00;98385.67;1718547;83;21289;-79
2022/11/06 02:58:32;;;;;;;53.73;33.67;;;;;;;7.57;100.00;98385.42;1717732;83;21534;-79
2022/11/06 03:01:02;;;;;;;67.60;42.85;;;;;;;7.61;100.00;98383.86;1702022;83;21386;-79
2022/11/06 03:03:34;;;;;;;51.18;31.75;;;;;;;7.56;100.00;98381.91;1718219;83;21027;-79
2022/11/06 03:06:16;;;;;;;56.53;32.15;;;;;;;7.60;100.00;98380.86;1718525;83;21011;-82
2022/11/06 03:08:51;;;;;;;61.53;44.18;;;;;;;7.58;100.00;98381.66;1718173;83;21243;-82
2022/11/06 03:11:31;;;;;;;56.80;27.13;;;;;;;7.50;100.00;98380.20;1718543;83;22074;-79
2022/11/06 03:14:15;;;;;;;54.45;31.80;;;;;;;7.51;100.00;98381.02;1718070;83;20980;-79
2022/11/06 03:17:03;;;;;;;59.67;35.88;;;;;;;7.54;100.00;98380.00;1718559;83;21484;-79
2022/11/06 03:19:41;;;;;;;46.20;27.90;;;;;;;7.52;100.00;98381.30;1718322;83;21436;-82
2022/11/06 03:22:27;;;;;;;51.18;29.65;;;;;;;7.55;100.00;98382.98;1718261;83;20995;-83
2022/11/06 03:25:10;;;;;;;55.75;30.92;;;;;;;7.54;100.00;98379.19;1709796;83;21155;-82
2022/11/06 03:27:47;;;;;;;59.13;30.80;;;;;;;7.56;100.00;98381.91;1717932;83;21015;-82
2022/11/06 03:30:13;;;;;;;57.90;26.23;;;;;;;7.58;100.00;98378.42;1718102;83;21059;-83
2022/11/06 03:33:01;;;;;;;51.25;25.12;;;;;;;7.61;100.00;98381.98;1713660;83;20963;-82
2022/11/06 03:35:38;;;;;;;52.13;26.30;;;;;;;7.62;100.00;98376.87;1716605;83;20988;-79
2022/11/06 03:38:18;;;;;;;46.28;27.05;;;;;;;7.61;100.00;98380.63;1718249;83;21155;-79
2022/11/06 03:40:50;;;;;;;48.48;27.75;;;;;;;7.59;100.00;98386.78;1718415;83;21020;-82
2022/11/06 03:43:18;;;;;;;45.35;26.00;;;;;;;7.61;100.00;98387.91;1718407;83;21055;-83
2022/11/06 03:45:44;;;;;;;45.33;25.60;;;;;;;7.62;100.00;98397.62;1718684;83;21067;-79
2022/11/06 03:48:20;;;;;;;52.85;29.60;;;;;;;7.62;100.00;98401.14;1718645;83;21594;-83
2022/11/06 03:50:51;;;;;;;45.60;25.82;;;;;;;7.62;100.00;98399.79;1718396;83;21257;-83
2022/11/06 03:53:28;;;;;;;49.53;27.40;;;;;;;7.65;100.00;98405.20;1715376;83;20956;-83
2022/11/06 03:56:08;;;;;;;47.83;25.85;;;;;;;7.69;100.00;98404.16;1718247;83;21059;-79
2022/11/06 03:58:37;;;;;;;45.63;24.55;;;;;;;7.72;100.00;98408.53;1718379;83;21016;-79
2022/11/06 04:01:04;;;;;;;45.03;26.62;;;;;;;7.77;100.00;98409.11;1718509;83;21011;-83
2022/11/06 04:03:55;;;;;;;70.25;40.15;;;;;;;7.78;100.00;98402.14;1718346;83;21290;-79
2022/11/06 04:06:29;;;;;;;53.65;31.15;;;;;;;7.77;100.00;98403.72;1718468;83;21460;-83
2022/11/06 04:14:28;;;;;;;48.78;24.80;;;;;;;7.77;100.00;98405.88;1718562;83;21055;-82
2022/11/06 04:16:58;;;;;;;43.38;25.40;;;;;;;7.78;100.00;98406.19;1718533;83;21310;-83
2022/11/06 04:19:24;;;;;;;43.17;20.35;;;;;;;7.75;100.00;98405.86;1718179;83;21019;-79
2022/11/06 04:22:16;;;;;;;45.28;23.98;;;;;;;7.71;100.00;98400.70;1718795;83;20892;-83
2022/11/06 04:28:29;;;;;;;56.75;38.05;;;;;;;7.72;100.00;98417.16;1718459;83;21012;-79
2022/11/06 04:31:22;;;;;;;36.53;21.73;;;;;;;7.66;100.00;98419.50;1717412;83;21839;-83
2022/11/06 04:33:56;;;;;;;111.35;78.60;;;;;;;7.68;100.00;98412.78;1712968;82;21435;-79
2022/11/06 04:36:44;;;;;;;69.45;46.37;;;;;;;7.67;100.00;98418.44;1718394;83;21082;-83
2022/11/06 04:39:21;;;;;;;108.95;67.00;;;;;;;7.58;100.00;98419.41;1718540;83;20961;-83
2022/11/06 04:42:01;;;;;;;62.33;40.60;;;;;;;7.51;100.00;98419.59;1718609;83;20988;-82
2022/11/06 04:44:36;;;;;;;48.35;27.02;;;;;;;7.51;100.00;98418.77;1689795;83;21463;-83
2022/11/06 04:47:06;;;;;;;40.58;21.35;;;;;;;7.47;100.00;98416.30;1718564;83;21083;-83
2022/11/06 04:49:34;;;;;;;72.15;47.70;;;;;;;7.43;100.00;98419.20;1690904;83;21507;-83
2022/11/06 04:52:02;;;;;;;57.90;37.98;;;;;;;7.39;100.00;98424.29;1718581;83;21404;-79
2022/11/06 04:54:28;;;;;;;52.65;35.85;;;;;;;7.39;100.00;98420.25;1717686;83;21476;-82
2022/11/06 04:57:00;;;;;;;63.23;39.55;;;;;;;7.32;100.00;98424.46;1712075;83;21048;-83
2022/11/06 04:59:26;;;;;;;53.45;34.55;;;;;;;7.29;100.00;98429.02;1691222;83;21010;-83
2022/11/06 05:01:52;;;;;;;42.93;28.10;;;;;;;7.33;100.00;98437.41;1711972;83;21600;-79
2022/11/06 05:04:18;;;;;;;64.15;39.60;;;;;;;7.32;100.00;98435.24;1711690;82;20891;-79
2022/11/06 05:06:44;;;;;;;82.55;55.03;;;;;;;7.32;100.00;98437.13;1711763;83;21603;-83
2022/11/06 05:09:10;;;;;;;74.65;47.45;;;;;;;7.35;100.00;98440.16;1711622;82;21082;-79
2022/11/06 05:11:37;;;;;;;61.83;39.67;;;;;;;7.31;100.00;98443.05;1711900;83;20891;-82
2022/11/06 05:14:03;;;;;;;43.02;23.92;;;;;;;7.31;100.00;98440.36;1691018;83;21025;-82
2022/11/06 05:16:29;;;;;;;52.08;28.35;;;;;;;7.30;100.00;98437.91;1711865;83;20937;-78
2022/11/06 05:18:55;;;;;;;61.33;40.10;;;;;;;7.30;100.00;98437.91;1711622;82;21084;-79
2022/11/06 05:24:06;;;;;;;55.70;35.68;;;;;;;7.26;100.00;98432.22;1711685;82;21018;-78
2022/11/06 05:26:32;;;;;;;56.73;32.85;;;;;;;7.27;100.00;98432.50;1711988;83;21430;-83
2022/11/06 05:28:58;;;;;;;43.60;24.37;;;;;;;7.31;100.00;98431.45;1711656;82;20894;-83
2022/11/06 05:31:23;;;;;;;50.75;33.35;;;;;;;7.32;100.00;98435.78;1712501;83;21022;-83
2022/11/06 05:33:49;;;;;;;46.85;25.30;;;;;;;7.30;100.00;98440.61;1713227;83;21157;-79
2022/11/06 05:36:15;;;;;;;72.12;50.92;;;;;;;7.30;100.00;98441.95;1718401;83;20876;-79
2022/11/06 05:38:41;;;;;;;54.35;30.52;;;;;;;7.32;100.00;98441.98;1718424;83;20924;-79
2022/11/06 05:41:07;;;;;;;61.95;41.05;;;;;;;7.34;100.00;98441.73;1718539;83;20868;-79
2022/11/06 05:43:33;;;;;;;62.80;37.58;;;;;;;7.35;100.00;98443.39;1718099;83;20892;-79
2022/11/06 05:45:59;;;;;;;52.53;32.00;;;;;;;7.33;100.00;98442.27;1718244;83;21141;-82
2022/11/06 05:48:27;;;;;;;63.13;45.38;;;;;;;7.36;100.00;98449.06;1717988;83;21487;-79
2022/11/06 05:51:02;;;;;;;49.47;36.00;;;;;;;7.38;100.00;98448.27;1717941;83;21004;-83
2022/11/06 05:53:30;;;;;;;55.35;33.60;;;;;;;7.40;100.00;98457.45;1691879;83;21024;-82
2022/11/06 05:55:56;;;;;;;55.33;33.13;;;;;;;7.41;100.00;98460.44;1718435;83;21298;-83
2022/11/06 05:58:21;;;;;;;56.55;30.88;;;;;;;7.44;100.00;98462.12;1718389;83;21069;-79
2022/11/06 06:00:47;;;;;;;39.88;25.12;;;;;;;7.47;100.00;98461.61;1718113;83;20877;-82
2022/11/06 06:03:13;;;;;;;45.45;26.17;;;;;;;7.49;100.00;98466.22;1718383;83;20892;-82
2022/11/06 06:05:39;;;;;;;54.95;33.30;;;;;;;7.53;100.00;98464.67;1718219;83;20920;-83
2022/11/06 06:08:05;;;;;;;54.33;28.38;;;;;;;7.46;100.00;98468.07;1718525;83;20893;-82
2022/11/06 06:10:31;;;;;;;38.95;22.80;;;;;;;7.47;100.00;98471.05;1718204;83;21790;-82
2022/11/06 06:12:57;;;;;;;54.80;25.88;;;;;;;7.48;100.00;98475.91;1718261;83;20856;-83
2022/11/06 06:15:23;;;;;;;41.13;24.52;;;;;;;7.44;100.00;98480.18;1718422;83;21558;-79
2022/11/06 06:17:49;;;;;;;44.45;24.05;;;;;;;7.47;100.00;98483.19;1718500;83;20861;-83
2022/11/06 06:20:15;;;;;;;55.23;24.85;;;;;;;7.47;100.00;98484.53;1718229;83;21573;-83
2022/11/06 06:22:41;;;;;;;42.30;23.25;;;;;;;7.48;100.00;98484.00;1718528;83;21440;-79
2022/11/06 06:25:07;;;;;;;40.55;22.70;;;;;;;7.47;100.00;98486.41;1689913;83;20964;-79
2022/11/06 06:27:33;;;;;;;36.00;21.97;;;;;;;7.42;100.00;98476.89;1718195;83;21082;-83
2022/11/06 06:29:59;;;;;;;47.08;23.90;;;;;;;7.44;100.00;98474.78;1718431;83;20940;-79
2022/11/06 06:32:25;;;;;;;45.15;24.37;;;;;;;7.41;100.00;98477.95;1714385;83;20908;-83
2022/11/06 06:34:51;;;;;;;47.65;21.65;;;;;;;7.43;100.00;98479.87;1712645;83;21063;-79
2022/11/06 06:37:16;;;;;;;48.20;22.27;;;;;;;7.43;100.00;98482.03;1711933;82;20887;-79
2022/11/06 06:39:42;;;;;;;43.98;22.40;;;;;;;7.48;100.00;98482.66;1711763;83;20969;-82
2022/11/06 06:42:08;;;;;;;38.02;21.82;;;;;;;7.49;100.00;98487.79;1711778;82;20882;-79
2022/11/06 06:44:34;;;;;;;43.02;22.50;;;;;;;7.52;100.00;98496.75;1711773;83;20946;-79
2022/11/06 06:47:00;;;;;;;41.23;21.17;;;;;;;7.54;100.00;98494.62;1711851;83;21020;-83
2022/11/06 06:49:26;;;;;;;41.53;21.68;;;;;;;7.57;100.00;98502.73;1711366;82;21533;-79
2022/11/06 06:51:52;;;;;;;39.33;20.95;;;;;;;7.61;100.00;98501.19;1711834;83;20981;-82
2022/11/06 06:54:21;;;;;;;35.13;19.60;;;;;;;7.64;100.00;98508.23;1711540;82;20911;-82
2022/11/06 06:56:47;;;;;;;37.75;19.80;;;;;;;7.66;100.00;98509.86;1711725;83;21010;-79
2022/11/06 06:59:13;;;;;;;36.90;20.75;;;;;;;7.65;100.00;98506.35;1711493;82;21273;-82
2022/11/06 07:01:39;;;;;;;32.33;20.35;;;;;;;7.64;100.00;98508.23;1711845;83;20883;-79
2022/11/06 07:04:05;;;;;;;40.75;19.07;;;;;;;7.68;100.00;98506.38;1711465;82;21141;-79
2022/11/06 07:06:31;;;;;;;37.38;19.80;;;;;;;7.73;100.00;98498.38;1711589;83;21500;-82
2022/11/06 07:08:57;;;;;;;39.98;20.55;;;;;;;7.80;100.00;98490.91;1711849;82;21084;-79
2022/11/06 07:11:23;;;;;;;40.80;19.12;;;;;;;7.82;100.00;98492.28;1711649;83;21153;-83
2022/11/06 07:13:49;;;;;;;29.80;17.52;;;;;;;7.89;100.00;98494.27;1711611;82;20946;-82
2022/11/06 07:16:15;;;;;;;37.45;17.20;;;;;;;7.96;100.00;98490.58;1711682;83;20961;-82
2022/11/06 07:18:41;;;;;;;37.75;17.85;;;;;;;7.95;100.00;98497.86;1711661;82;20946;-83
2022/11/06 07:21:08;;;;;;;33.02;17.80;;;;;;;7.89;100.00;98483.48;1711575;83;21077;-82
2022/11/06 07:23:34;;;;;;;42.00;18.42;;;;;;;7.89;100.00;98483.48;1711952;82;21648;-82
2022/11/06 07:26:01;;;;;;;38.65;17.30;;;;;;;7.96;100.00;98483.83;1711628;83;21010;-79
2022/11/06 07:28:27;;;;;;;38.90;18.75;;;;;;;7.96;100.00;98483.83;1711616;82;21006;-82
2022/11/06 07:30:59;;;;;;;35.73;17.40;;;;;;;7.97;100.00;98487.62;1716556;82;20889;-79
2022/11/06 07:33:25;;;;;;;33.88;17.60;;;;;;;7.99;100.00;98489.53;1718870;82;21004;-79
2022/11/06 07:35:51;;;;;;;37.15;19.62;;;;;;;8.06;100.00;98483.95;1715812;82;21138;-82
2022/11/06 07:38:17;;;;;;;33.18;17.70;;;;;;;8.12;100.00;98485.65;1711821;82;21635;-83
2022/11/06 07:40:43;;;;;;;29.60;16.52;;;;;;;8.20;100.00;98486.52;1711719;83;20985;-82
2022/11/06 07:43:10;;;;;;;29.98;16.52;;;;;;;8.25;100.00;98480.38;1711487;82;20969;-82
2022/11/06 07:45:36;;;;;;;35.58;17.92;;;;;;;8.20;100.00;98486.52;1711743;83;21077;-79
2022/11/06 07:48:03;;;;;;;42.43;19.02;;;;;;;8.20;100.00;98478.42;1711775;82;21352;-79
2022/11/06 07:50:29;;;;;;;38.78;19.60;;;;;;;8.30;100.00;98488.02;1711560;83;20997;-82
2022/11/06 07:52:55;;;;;;;31.48;18.87;;;;;;;8.35;100.00;98484.56;1711675;82;21069;-79
2022/11/06 07:55:21;;;;;;;48.05;23.62;;;;;;;8.32;100.00;98478.30;1711800;83;20922;-82
2022/11/06 07:57:47;;;;;;;41.28;23.73;;;;;;;8.35;100.00;98476.47;1711662;82;21014;-82
2022/11/06 08:00:13;;;;;;;40.52;21.10;;;;;;;8.42;100.00;98468.98;1711837;83;21355;-83
2022/11/06 08:02:40;;;;;;;43.78;22.40;;;;;;;8.48;100.00;98470.67;1711795;82;21108;-79
2022/11/06 08:05:06;;;;;;;41.50;21.55;;;;;;;8.54;100.00;98464.77;1711577;83;21029;-84
2022/11/06 08:07:32;;;;;;;44.67;21.45;;;;;;;8.60;100.00;98467.80;1711613;82;22037;-79
2022/11/06 08:09:58;;;;;;;37.40;20.50;;;;;;;8.69;100.00;98470.31;1711810;83;20915;-83
2022/11/06 08:12:27;;;;;;;35.90;19.67;;;;;;;8.74;100.00;98469.03;1711703;82;21049;-79
2022/11/06 08:14:53;;;;;;;41.20;24.20;;;;;;;8.74;100.00;98467.67;1711814;83;21061;-79
2022/11/06 08:17:19;;;;;;;47.08;28.60;;;;;;;8.75;100.00;98472.00;1711912;82;20953;-82
2022/11/06 08:19:45;;;;;;;42.00;25.40;;;;;;;8.74;100.00;98469.84;1711814;83;20914;-80
2022/11/06 08:22:11;;;;;;;45.33;27.45;;;;;;;8.68;100.00;98469.51;1711905;82;21049;-79
2022/11/06 08:24:36;;;;;;;40.45;22.98;;;;;;;8.70;100.00;98474.65;1711764;83;21052;-79
2022/11/06 08:27:02;;;;;;;40.28;22.30;;;;;;;8.78;100.00;98474.72;1711751;82;20909;-83
2022/11/06 08:29:28;;;;;;;41.73;22.13;;;;;;;8.81;100.00;98470.17;1711592;83;20989;-79
2022/11/06 08:31:54;;;;;;;34.27;19.92;;;;;;;8.92;100.00;98471.88;1727764;82;20932;-83
2022/11/06 08:34:20;;;;;;;37.40;21.97;;;;;;;9.07;100.00;98469.84;1732636;81;20978;-80
2022/11/06 08:36:49;;;;;;;33.67;20.15;;;;;;;9.12;100.00;98458.51;1713414;83;21193;-79
2022/11/06 08:39:14;;;;;;;34.13;18.37;;;;;;;9.20;100.00;98466.14;1713208;83;21017;-79
2022/11/06 08:41:40;;;;;;;35.17;19.45;;;;;;;9.31;100.00;98460.25;1713188;83;22223;-79
2022/11/06 08:44:06;;;;;;;35.45;20.05;;;;;;;9.42;100.00;98461.16;1713263;83;20870;-79
2022/11/06 08:46:32;;;;;;;37.42;19.85;;;;;;;9.53;100.00;98460.13;1713375;83;21064;-83
2022/11/06 08:48:58;;;;;;;31.07;16.55;;;;;;;9.63;100.00;98462.08;1713224;83;21654;-80
2022/11/06 08:51:23;;;;;;;28.95;16.02;;;;;;;9.70;100.00;98456.70;1713226;83;20866;-79
2022/11/06 08:53:49;;;;;;;29.15;15.40;;;;;;;9.76;100.00;98454.31;1713395;83;21547;-83
2022/11/06 08:56:16;;;;;;;27.75;14.65;;;;;;;9.76;100.00;98458.37;1713298;83;20980;-83
2022/11/06 08:58:42;;;;;;;32.90;16.77;;;;;;;9.81;100.00;98459.73;1713389;83;20973;-83
2022/11/06 09:01:08;;;;;;;26.77;15.20;;;;;;;9.84;100.00;98464.63;1713216;83;21176;-83
2022/11/06 09:03:34;;;;;;;26.17;15.10;;;;;;;9.79;100.00;98457.02;1713143;83;21064;-83
2022/11/06 09:06:00;;;;;;;32.63;16.55;;;;;;;9.77;100.00;98462.70;1713410;83;20894;-79
2022/11/06 09:08:25;;;;;;;33.73;16.25;;;;;;;9.86;100.00;98462.47;1713406;83;21506;-83
2022/11/06 09:10:51;;;;;;;28.60;16.00;;;;;;;9.94;100.00;98462.50;1713297;83;20886;-83
2022/11/06 09:13:17;;;;;;;26.07;14.85;;;;;;;9.97;100.00;98458.45;1713422;82;21759;-80
2022/11/06 09:15:43;;;;;;;30.62;16.00;;;;;;;10.02;100.00;98457.12;1713410;83;20882;-79
2022/11/06 09:18:10;;;;;;;26.93;15.45;;;;;;;10.04;100.00;98453.60;1713399;83;21029;-79
2022/11/06 09:20:36;;;;;;;31.00;16.07;;;;;;;9.96;100.00;98454.92;1713444;82;21072;-79
2022/11/06 09:23:06;;;;;;;29.57;15.43;;;;;;;9.91;100.00;98449.48;1713636;83;20977;-79
2022/11/06 09:25:32;;;;;;;23.32;13.88;;;;;;;9.92;100.00;98453.84;1713382;82;21130;-79
2022/11/06 09:27:58;;;;;;;29.18;14.45;;;;;;;9.92;100.00;98456.55;1713365;83;20949;-83
2022/11/06 09:30:25;;;;;;;23.32;12.28;;;;;;;10.00;100.00;98453.33;1713496;83;20945;-83
2022/11/06 09:32:53;;;;;;;28.87;14.75;;;;;;;10.03;100.00;98450.62;1698493;83;21001;-83
2022/11/06 09:35:20;;;;;;;27.83;13.87;;;;;;;10.10;100.00;98457.42;1706985;83;21191;-79
2022/11/06 09:37:46;;;;;;;25.55;13.53;;;;;;;10.11;100.00;98456.88;1711855;82;21302;-79
2022/11/06 09:40:31;;;;;;;20.68;12.55;;;;;;;10.20;100.00;98455.83;1711738;83;20890;-83
2022/11/06 09:43:05;;;;;;;22.40;12.00;;;;;;;10.16;100.00;98459.59;1710975;83;21032;-79
2022/11/06 09:45:31;;;;;;;28.20;13.83;;;;;;;10.17;100.00;98455.28;1712007;83;21026;-79
2022/11/06 09:48:11;;;;;;;23.65;13.00;;;;;;;9.95;100.00;98452.48;1711662;82;21564;-83
2022/11/06 09:50:43;;;;;;;21.93;13.08;;;;;;;10.06;100.00;98449.55;1711813;83;21417;-82
2022/11/06 09:53:29;;;;;;;27.60;13.15;;;;;;;10.11;100.00;98453.63;1711473;82;21069;-83
2022/11/06 09:55:55;;;;;;;22.67;13.40;;;;;;;10.08;100.00;98450.62;1711614;83;21069;-83
2022/11/06 09:58:29;;;;;;;32.58;15.40;;;;;;;10.05;100.00;98445.21;1691450;83;20994;-83
2022/11/06 10:00:57;;;;;;;27.73;13.88;;;;;;;10.12;100.00;98440.91;1711583;83;21507;-83
2022/11/06 10:03:30;;;;;;;23.22;13.48;;;;;;;10.21;100.00;98440.66;1710648;82;21462;-79
2022/11/06 10:05:56;;;;;;;21.93;11.38;;;;;;;10.28;100.00;98435.02;1711722;83;21014;-79
2022/11/06 10:08:27;;;;;;;21.90;12.55;;;;;;;10.33;100.00;98436.38;1711819;82;20883;-83
2022/11/06 10:11:16;;;;;;;24.10;12.95;;;;;;;10.29;100.00;98442.06;1711602;83;21057;-79
2022/11/06 10:13:56;;;;;;;22.17;11.63;;;;;;;10.22;100.00;98438.77;1709955;82;21034;-83
2022/11/06 10:16:30;;;;;;;22.48;12.55;;;;;;;10.11;100.00;98438.73;1711635;83;21053;-79
2022/11/06 10:19:14;;;;;;;22.98;13.00;;;;;;;10.15;100.00;98433.59;1711542;82;21026;-82
2022/11/06 10:21:47;;;;;;;18.57;11.10;;;;;;;10.17;100.00;98430.91;1708076;83;21045;-82
2022/11/06 10:24:31;;;;;;;22.85;12.70;;;;;;;10.20;100.00;98428.20;1710351;82;21110;-83
2022/11/06 10:26:57;;;;;;;25.25;12.53;;;;;;;10.22;100.00;98419.30;1710615;83;21009;-79
2022/11/06 10:30:07;;;;;;;23.70;13.15;;;;;;;10.20;100.00;98417.91;1711648;82;21528;-83
2022/11/06 10:32:50;;;;;;;25.88;13.50;;;;;;;10.10;100.00;98408.69;1663640;84;21686;-79
2022/11/06 10:35:27;;;;;;;25.75;13.43;;;;;;;10.10;100.00;98401.10;1699545;83;21311;-82
2022/11/06 10:38:00;;;;;;;31.97;18.35;;;;;;;10.08;100.00;98398.67;1713246;82;20994;-83
2022/11/06 10:40:30;;;;;;;32.60;22.15;;;;;;;10.09;100.00;98399.48;1713259;82;21131;-83
2022/11/06 10:43:27;;;;;;;26.33;14.65;;;;;;;10.07;100.00;98399.72;1713335;82;21046;-84
2022/11/06 10:46:01;;;;;;;24.72;13.90;;;;;;;10.03;100.00;98396.48;1713328;83;21022;-83
2022/11/06 10:48:30;;;;;;;24.67;14.07;;;;;;;9.97;100.00;98396.99;1711664;82;20994;-79
2022/11/06 10:51:45;;;;;;;27.58;16.62;;;;;;;9.93;100.00;98390.50;1713369;82;21078;-79
2022/11/06 10:54:37;;;;;;;25.35;14.80;;;;;;;9.88;100.00;98387.22;1713121;82;21006;-83
2022/11/06 10:57:38;;;;;;;29.12;14.35;;;;;;;9.73;100.00;98386.35;1712956;82;21122;-79
2022/11/06 11:00:04;;;;;;;21.10;14.60;;;;;;;9.60;100.00;98383.61;1713196;83;21041;-79
2022/11/06 11:02:34;;;;;;;25.70;13.35;;;;;;;9.56;100.00;98384.66;1713031;82;20995;-79
2022/11/06 11:04:59;;;;;;;49.60;25.35;;;;;;;9.54;100.00;98384.11;1713354;82;21109;-83
2022/11/06 11:07:29;;;;;;;61.13;32.78;;;;;;;9.47;100.00;98382.19;1713210;82;20997;-80
2022/11/06 11:09:55;;;;;;;132.27;72.67;;;;;;;9.33;100.00;98381.86;1713252;82;21129;-79
2022/11/06 11:12:28;;;;;;;62.93;40.98;;;;;;;9.28;100.00;98375.06;1713181;82;20969;-80
2022/11/06 11:15:07;;;;;;;49.05;28.85;;;;;;;9.28;100.00;98370.20;1713416;83;21411;-83
2022/11/06 11:17:33;;;;;;;39.63;19.23;;;;;;;9.34;100.00;98367.80;1713009;82;21360;-83
2022/11/06 11:20:00;;;;;;;30.65;17.30;;;;;;;9.28;100.00;98364.78;1713468;83;21081;-79
2022/11/06 11:22:27;;;;;;;32.48;16.97;;;;;;;9.28;100.00;98364.25;1702944;82;21169;-79
2022/11/06 11:25:05;;;;;;;28.60;16.80;;;;;;;9.29;100.00;98358.30;1713215;82;20945;-80
2022/11/06 11:27:35;;;;;;;23.90;14.53;;;;;;;9.27;100.00;98360.46;1713077;82;26536;-80
2022/11/06 11:30:03;;;;;;;26.90;13.90;;;;;;;9.29;100.00;98349.65;1713546;83;21014;-83
2022/11/06 11:32:30;;;;;;;26.40;14.95;;;;;;;9.32;100.00;98351.03;1713175;82;21022;-80
2022/11/06 11:34:55;;;;;;;24.12;14.55;;;;;;;9.34;100.00;98346.17;1712539;83;21517;-79
2022/11/06 11:37:32;;;;;;;28.80;13.78;;;;;;;9.37;100.00;98348.33;1711584;82;20958;-80
2022/11/06 11:40:27;;;;;;;22.90;12.98;;;;;;;9.25;100.00;98346.39;1711737;83;21453;-79
2022/11/06 11:42:53;;;;;;;19.87;12.03;;;;;;;9.23;100.00;98341.80;1711411;82;20994;-79
2022/11/06 11:45:19;;;;;;;20.95;13.28;;;;;;;9.23;100.00;98345.85;1711721;83;20902;-79
2022/11/06 11:47:48;;;;;;;22.80;12.45;;;;;;;9.21;100.00;98341.22;1711695;82;21155;-83